sensor_id;sensor_type;location;lat;lon;timestamp;pressure;altitude;pressure_sealevel;temperature;humidity
8069;BME280;4077;43.702;24.896;2023-02-28T00:00:23;100290.44;;;5.04;100.00
8069;BME280;4077;43.702;24.896;2023-02-28T00:02:49;100291.19;;;5.01;100.00
8069;BME280;4077;43.702;24.896;2023-02-28T00:05:18;100287.72;;;5.01;100.00
8069;BME280;4077;43.702;24.896;2023-02-28T00:07:44;100297.19;;;5.21;100.00
8069;BME280;4077;43.702;24.896;2023-02-28T00:10:12;100302.06;;;5.34;100.00
8069;BME280;4077;43.702;24.896;2023-02-28T00:12:38;100309.03;;;5.19;100.00
8069;BME280;4077;43.702;24.896;2023-02-28T00:15:09;100308.09;;;5.17;100.00
8069;BME280;4077;43.702;24.896;2023-02-28T00:17:35;100308.91;;;5.16;100.00
8069;BME280;4077;43.702;24.896;2023-02-28T00:20:01;100311.53;;;5.17;100.00
8069;BME280;4077;43.702;24.896;2023-02-28T00:22:47;100309.09;;;5.20;100.00
8069;BME280;4077;43.702;24.896;2023-02-28T00:25:16;100314.03;;;5.16;100.00
8069;BME280;4077;43.702;24.896;2023-02-28T00:27:42;100334.75;;;5.03;100.00
8069;BME280;4077;43.702;24.896;2023-02-28T00:30:11;100333.00;;;5.02;100.00
8069;BME280;4077;43.702;24.896;2023-02-28T00:32:37;100325.88;;;4.78;100.00
8069;BME280;4077;43.702;24.896;2023-02-28T00:35:03;100354.97;;;4.80;100.00
8069;BME280;4077;43.702;24.896;2023-02-28T00:37:29;100344.16;;;4.68;100.00
8069;BME280;4077;43.702;24.896;2023-02-28T00:39:54;100344.38;;;4.73;100.00
8069;BME280;4077;43.702;24.896;2023-02-28T00:42:20;100343.34;;;4.69;100.00
8069;BME280;4077;43.702;24.896;2023-02-28T00:44:45;100348.25;;;4.82;100.00
8069;BME280;4077;43.702;24.896;2023-02-28T00:47:11;100366.91;;;4.98;100.00
8069;BME280;4077;43.702;24.896;2023-02-28T00:49:36;100361.25;;;5.05;100.00
8069;BME280;4077;43.702;24.896;2023-02-28T00:52:02;100372.59;;;5.10;100.00
8069;BME280;4077;43.702;24.896;2023-02-28T00:54:28;100378.00;;;4.98;100.00
8069;BME280;4077;43.702;24.896;2023-02-28T00:56:53;100359.44;;;4.84;100.00
8069;BME280;4077;43.702;24.896;2023-02-28T00:59:18;100375.81;;;4.88;100.00
8069;BME280;4077;43.702;24.896;2023-02-28T01:01:45;100375.34;;;4.79;100.00
8069;BME280;4077;43.702;24.896;2023-02-28T01:04:11;100377.84;;;4.77;100.00
8069;BME280;4077;43.702;24.896;2023-02-28T01:06:37;100369.38;;;4.78;100.00
8069;BME280;4077;43.702;24.896;2023-02-28T01:09:04;100383.97;;;4.63;100.00
8069;BME280;4077;43.702;24.896;2023-02-28T01:11:35;100386.09;;;4.54;100.00
8069;BME280;4077;43.702;24.896;2023-02-28T01:14:01;100392.31;;;4.43;100.00
8069;BME280;4077;43.702;24.896;2023-02-28T01:16:27;100390.81;;;4.46;100.00
8069;BME280;4077;43.702;24.896;2023-02-28T01:18:53;100378.44;;;4.37;100.00
8069;BME280;4077;43.702;24.896;2023-02-28T01:21:20;100371.81;;;4.41;100.00
8069;BME280;4077;43.702;24.896;2023-02-28T01:23:46;100373.81;;;4.30;100.00
8069;BME280;4077;43.702;24.896;2023-02-28T01:26:14;100387.22;;;4.43;100.00
8069;BME280;4077;43.702;24.896;2023-02-28T01:28:40;100376.59;;;4.35;100.00
8069;BME280;4077;43.702;24.896;2023-02-28T01:31:05;100377.56;;;4.37;100.00
8069;BME280;4077;43.702;24.896;2023-02-28T01:33:32;100391.38;;;4.41;100.00
8069;BME280;4077;43.702;24.896;2023-02-28T01:36:02;100403.81;;;4.51;100.00
8069;BME280;4077;43.702;24.896;2023-02-28T01:38:29;100389.50;;;4.54;100.00
8069;BME280;4077;43.702;24.896;2023-02-28T01:40:54;100380.28;;;4.58;100.00
8069;BME280;4077;43.702;24.896;2023-02-28T01:43:28;100365.56;;;4.36;100.00
8069;BME280;4077;43.702;24.896;2023-02-28T01:45:56;100387.38;;;4.29;100.00
8069;BME280;4077;43.702;24.896;2023-02-28T01:48:30;100374.97;;;4.19;100.00
8069;BME280;4077;43.702;24.896;2023-02-28T01:50:59;100382.31;;;4.13;100.00
8069;BME280;4077;43.702;24.896;2023-02-28T01:53:39;100394.25;;;3.98;100.00
8069;BME280;4077;43.702;24.896;2023-02-28T01:56:07;100371.63;;;3.88;100.00
8069;BME280;4077;43.702;24.896;2023-02-28T01:58:34;100372.06;;;3.97;100.00
8069;BME280;4077;43.702;24.896;2023-02-28T02:01:02;100373.91;;;3.83;100.00
8069;BME280;4077;43.702;24.896;2023-02-28T02:03:29;100369.78;;;4.01;100.00
8069;BME280;4077;43.702;24.896;2023-02-28T02:05:56;100380.88;;;4.02;100.00
8069;BME280;4077;43.702;24.896;2023-02-28T02:08:24;100368.72;;;4.14;100.00
8069;BME280;4077;43.702;24.896;2023-02-28T02:10:52;100377.03;;;4.10;100.00
8069;BME280;4077;43.702;24.896;2023-02-28T02:35:52;100399.97;;;3.92;100.00
8069;BME280;4077;43.702;24.896;2023-02-28T02:38:35;100412.94;;;3.97;100.00
8069;BME280;4077;43.702;24.896;2023-02-28T02:41:18;100415.91;;;4.04;100.00
8069;BME280;4077;43.702;24.896;2023-02-28T02:44:34;100419.81;;;3.98;100.00
8069;BME280;4077;43.702;24.896;2023-02-28T02:47:03;100411.06;;;3.62;100.00
8069;BME280;4077;43.702;24.896;2023-02-28T02:49:32;100397.84;;;3.52;100.00
8069;BME280;4077;43.702;24.896;2023-02-28T02:52:03;100419.94;;;3.68;100.00
8069;BME280;4077;43.702;24.896;2023-02-28T02:54:38;100413.09;;;3.67;100.00
8069;BME280;4077;43.702;24.896;2023-02-28T02:57:10;100402.88;;;3.67;100.00
8069;BME280;4077;43.702;24.896;2023-02-28T02:59:38;100386.69;;;3.67;100.00
8069;BME280;4077;43.702;24.896;2023-02-28T03:02:08;100390.25;;;3.54;100.00
8069;BME280;4077;43.702;24.896;2023-02-28T03:04:42;100396.50;;;3.59;100.00
8069;BME280;4077;43.702;24.896;2023-02-28T03:07:08;100409.66;;;3.36;100.00
8069;BME280;4077;43.702;24.896;2023-02-28T03:09:34;100399.78;;;3.42;100.00
8069;BME280;4077;43.702;24.896;2023-02-28T03:12:03;100413.53;;;3.29;100.00
8069;BME280;4077;43.702;24.896;2023-02-28T03:14:50;100426.91;;;3.40;100.00
8069;BME280;4077;43.702;24.896;2023-02-28T03:20:03;100421.00;;;3.41;100.00
8069;BME280;4077;43.702;24.896;2023-02-28T03:30:59;100409.09;;;3.25;100.00
8069;BME280;4077;43.702;24.896;2023-02-28T03:33:42;100415.91;;;3.41;100.00
8069;BME280;4077;43.702;24.896;2023-02-28T03:36:16;100418.88;;;3.48;100.00
8069;BME280;4077;43.702;24.896;2023-02-28T03:39:46;100421.53;;;3.35;100.00
8069;BME280;4077;43.702;24.896;2023-02-28T03:42:08;100421.75;;;3.23;100.00
8069;BME280;4077;43.702;24.896;2023-02-28T03:44:42;100416.50;;;3.06;100.00
8069;BME280;4077;43.702;24.896;2023-02-28T03:47:13;100415.19;;;3.12;100.00
8069;BME280;4077;43.702;24.896;2023-02-28T03:49:47;100406.53;;;3.25;100.00
8069;BME280;4077;43.702;24.896;2023-02-28T03:52:14;100403.09;;;3.24;100.00
8069;BME280;4077;43.702;24.896;2023-02-28T03:54:48;100407.75;;;3.32;100.00
8069;BME280;4077;43.702;24.896;2023-02-28T03:57:24;100410.34;;;3.17;100.00
8069;BME280;4077;43.702;24.896;2023-02-28T03:59:58;100413.78;;;3.17;100.00
8069;BME280;4077;43.702;24.896;2023-02-28T04:02:24;100415.53;;;3.18;100.00
8069;BME280;4077;43.702;24.896;2023-02-28T04:04:50;100416.47;;;3.20;100.00
8069;BME280;4077;43.702;24.896;2023-02-28T04:07:16;100417.69;;;3.27;100.00
8069;BME280;4077;43.702;24.896;2023-02-28T04:09:42;100417.22;;;3.34;100.00
8069;BME280;4077;43.702;24.896;2023-02-28T04:12:08;100412.78;;;3.30;100.00
8069;BME280;4077;43.702;24.896;2023-02-28T04:14:34;100423.59;;;3.26;100.00
8069;BME280;4077;43.702;24.896;2023-02-28T04:16:59;100409.00;;;3.23;100.00
8069;BME280;4077;43.702;24.896;2023-02-28T04:19:25;100414.59;;;3.33;100.00
8069;BME280;4077;43.702;24.896;2023-02-28T04:21:52;100416.81;;;3.26;100.00
8069;BME280;4077;43.702;24.896;2023-02-28T04:24:23;100421.66;;;3.22;100.00
8069;BME280;4077;43.702;24.896;2023-02-28T04:26:51;100419.38;;;3.26;100.00
8069;BME280;4077;43.702;24.896;2023-02-28T04:29:31;100417.69;;;3.27;100.00
8069;BME280;4077;43.702;24.896;2023-02-28T04:32:01;100430.25;;;3.39;100.00
8069;BME280;4077;43.702;24.896;2023-02-28T04:34:28;100417.97;;;3.32;100.00
8069;BME280;4077;43.702;24.896;2023-02-28T04:36:55;100439.97;;;3.29;100.00
8069;BME280;4077;43.702;24.896;2023-02-28T04:39:21;100438.09;;;3.27;100.00
8069;BME280;4077;43.702;24.896;2023-02-28T04:41:47;100445.59;;;3.24;100.00
8069;BME280;4077;43.702;24.896;2023-02-28T04:44:13;100446.66;;;3.13;100.00
8069;BME280;4077;43.702;24.896;2023-02-28T04:46:39;100432.03;;;3.25;100.00
8069;BME280;4077;43.702;24.896;2023-02-28T04:49:05;100419.72;;;3.33;100.00
8069;BME280;4077;43.702;24.896;2023-02-28T04:51:30;100424.97;;;3.36;100.00
8069;BME280;4077;43.702;24.896;2023-02-28T04:53:56;100426.56;;;3.34;100.00
8069;BME280;4077;43.702;24.896;2023-02-28T04:56:21;100429.03;;;3.32;100.00
8069;BME280;4077;43.702;24.896;2023-02-28T04:58:47;100429.31;;;3.37;100.00
8069;BME280;4077;43.702;24.896;2023-02-28T05:01:31;100431.16;;;3.24;100.00
8069;BME280;4077;43.702;24.896;2023-02-28T05:03:59;100425.53;;;3.15;100.00
8069;BME280;4077;43.702;24.896;2023-02-28T05:06:27;100420.97;;;3.24;100.00
8069;BME280;4077;43.702;24.896;2023-02-28T05:08:53;100427.03;;;3.26;100.00
8069;BME280;4077;43.702;24.896;2023-02-28T05:11:24;100429.91;;;3.33;100.00
8069;BME280;4077;43.702;24.896;2023-02-28T05:13:51;100439.06;;;3.29;100.00
8069;BME280;4077;43.702;24.896;2023-02-28T05:16:18;100451.81;;;3.29;100.00
8069;BME280;4077;43.702;24.896;2023-02-28T05:18:43;100451.03;;;3.15;100.00
8069;BME280;4077;43.702;24.896;2023-02-28T05:23:48;100468.28;;;3.19;100.00
8069;BME280;4077;43.702;24.896;2023-02-28T05:26:14;100473.28;;;3.33;100.00
8069;BME280;4077;43.702;24.896;2023-02-28T05:28:39;100482.69;;;3.34;100.00
8069;BME280;4077;43.702;24.896;2023-02-28T05:31:05;100473.31;;;3.18;100.00
8069;BME280;4077;43.702;24.896;2023-02-28T05:33:30;100484.31;;;3.32;100.00
8069;BME280;4077;43.702;24.896;2023-02-28T05:35:55;100487.09;;;3.21;100.00
8069;BME280;4077;43.702;24.896;2023-02-28T05:38:21;100485.63;;;3.25;100.00
8069;BME280;4077;43.702;24.896;2023-02-28T05:40:46;100502.31;;;3.35;100.00
8069;BME280;4077;43.702;24.896;2023-02-28T05:43:12;100507.44;;;3.20;100.00
8069;BME280;4077;43.702;24.896;2023-02-28T05:45:37;100496.44;;;3.21;100.00
8069;BME280;4077;43.702;24.896;2023-02-28T05:48:03;100499.25;;;3.25;100.00
8069;BME280;4077;43.702;24.896;2023-02-28T05:50:28;100514.06;;;3.16;100.00
8069;BME280;4077;43.702;24.896;2023-02-28T05:52:53;100502.97;;;3.16;100.00
8069;BME280;4077;43.702;24.896;2023-02-28T05:55:19;100506.47;;;3.18;100.00
8069;BME280;4077;43.702;24.896;2023-02-28T05:57:45;100509.47;;;3.25;100.00
8069;BME280;4077;43.702;24.896;2023-02-28T06:00:11;100505.41;;;3.14;100.00
8069;BME280;4077;43.702;24.896;2023-02-28T06:02:38;100511.31;;;3.13;100.00
8069;BME280;4077;43.702;24.896;2023-02-28T06:05:04;100501.75;;;3.09;100.00
8069;BME280;4077;43.702;24.896;2023-02-28T06:07:29;100503.06;;;3.03;100.00
8069;BME280;4077;43.702;24.896;2023-02-28T06:09:55;100506.66;;;3.06;100.00
8069;BME280;4077;43.702;24.896;2023-02-28T06:12:20;100507.81;;;3.11;100.00
8069;BME280;4077;43.702;24.896;2023-02-28T06:14:46;100509.28;;;3.22;100.00
8069;BME280;4077;43.702;24.896;2023-02-28T06:17:11;100502.75;;;3.27;100.00
8069;BME280;4077;43.702;24.896;2023-02-28T06:19:37;100510.16;;;3.38;100.00
8069;BME280;4077;43.702;24.896;2023-02-28T06:22:09;100507.50;;;3.36;100.00
8069;BME280;4077;43.702;24.896;2023-02-28T06:24:34;100515.78;;;3.47;100.00
8069;BME280;4077;43.702;24.896;2023-02-28T06:26:59;100510.66;;;3.47;100.00
8069;BME280;4077;43.702;24.896;2023-02-28T06:29:31;100511.00;;;3.53;100.00
8069;BME280;4077;43.702;24.896;2023-02-28T06:31:57;100509.41;;;3.55;100.00
8069;BME280;4077;43.702;24.896;2023-02-28T06:34:22;100521.38;;;3.56;100.00
8069;BME280;4077;43.702;24.896;2023-02-28T06:36:50;100500.88;;;3.54;100.00
8069;BME280;4077;43.702;24.896;2023-02-28T06:39:16;100525.81;;;3.59;100.00
8069;BME280;4077;43.702;24.896;2023-02-28T06:41:42;100518.59;;;3.51;100.00
8069;BME280;4077;43.702;24.896;2023-02-28T06:44:15;100523.69;;;3.51;100.00
8069;BME280;4077;43.702;24.896;2023-02-28T06:46:42;100523.47;;;3.63;100.00
8069;BME280;4077;43.702;24.896;2023-02-28T06:49:08;100534.59;;;3.49;100.00
8069;BME280;4077;43.702;24.896;2023-02-28T06:51:35;100531.41;;;3.68;100.00
8069;BME280;4077;43.702;24.896;2023-02-28T06:54:01;100534.41;;;3.61;100.00
8069;BME280;4077;43.702;24.896;2023-02-28T06:56:27;100541.13;;;3.44;100.00
8069;BME280;4077;43.702;24.896;2023-02-28T06:58:52;100543.75;;;3.60;100.00
8069;BME280;4077;43.702;24.896;2023-02-28T07:01:18;100554.31;;;3.66;100.00
8069;BME280;4077;43.702;24.896;2023-02-28T07:03:44;100565.66;;;3.71;100.00
8069;BME280;4077;43.702;24.896;2023-02-28T07:06:10;100564.16;;;3.60;100.00
8069;BME280;4077;43.702;24.896;2023-02-28T07:08:35;100570.31;;;3.49;100.00
8069;BME280;4077;43.702;24.896;2023-02-28T07:11:02;100572.28;;;3.53;100.00
8069;BME280;4077;43.702;24.896;2023-02-28T07:13:27;100569.66;;;3.51;100.00
8069;BME280;4077;43.702;24.896;2023-02-28T07:16:04;100558.38;;;3.48;100.00
8069;BME280;4077;43.702;24.896;2023-02-28T07:18:31;100559.75;;;3.43;100.00
8069;BME280;4077;43.702;24.896;2023-02-28T07:20:56;100570.31;;;3.49;100.00
8069;BME280;4077;43.702;24.896;2023-02-28T07:23:22;100555.72;;;3.46;100.00
8069;BME280;4077;43.702;24.896;2023-02-28T07:25:48;100555.56;;;3.43;100.00
8069;BME280;4077;43.702;24.896;2023-02-28T07:28:14;100550.09;;;3.52;100.00
8069;BME280;4077;43.702;24.896;2023-02-28T07:30:40;100566.09;;;3.49;100.00
8069;BME280;4077;43.702;24.896;2023-02-28T07:33:06;100564.00;;;3.57;100.00
8069;BME280;4077;43.702;24.896;2023-02-28T07:35:31;100558.22;;;3.45;100.00
8069;BME280;4077;43.702;24.896;2023-02-28T07:37:58;100566.28;;;3.52;100.00
8069;BME280;4077;43.702;24.896;2023-02-28T07:40:24;100557.66;;;3.65;100.00
8069;BME280;4077;43.702;24.896;2023-02-28T07:42:49;100564.34;;;3.48;100.00
8069;BME280;4077;43.702;24.896;2023-02-28T07:45:15;100561.34;;;3.55;100.00
8069;BME280;4077;43.702;24.896;2023-02-28T07:47:42;100562.38;;;3.74;100.00
8069;BME280;4077;43.702;24.896;2023-02-28T07:50:09;100568.88;;;3.83;100.00
8069;BME280;4077;43.702;24.896;2023-02-28T07:52:36;100577.56;;;3.71;100.00
8069;BME280;4077;43.702;24.896;2023-02-28T07:55:02;100579.44;;;3.90;100.00
8069;BME280;4077;43.702;24.896;2023-02-28T07:57:28;100570.81;;;3.88;100.00
8069;BME280;4077;43.702;24.896;2023-02-28T07:59:53;100587.16;;;3.60;100.00
8069;BME280;4077;43.702;24.896;2023-02-28T08:02:19;100584.06;;;3.66;100.00
8069;BME280;4077;43.702;24.896;2023-02-28T08:04:45;100575.53;;;3.65;100.00
8069;BME280;4077;43.702;24.896;2023-02-28T08:07:12;100582.38;;;3.66;100.00
8069;BME280;4077;43.702;24.896;2023-02-28T08:09:39;100593.75;;;3.71;100.00
8069;BME280;4077;43.702;24.896;2023-02-28T08:12:05;100584.19;;;3.83;100.00
8069;BME280;4077;43.702;24.896;2023-02-28T08:14:30;100589.50;;;3.87;100.00
8069;BME280;4077;43.702;24.896;2023-02-28T08:16:56;100559.53;;;3.84;100.00
8069;BME280;4077;43.702;24.896;2023-02-28T08:19:21;100586.28;;;4.05;100.00
8069;BME280;4077;43.702;24.896;2023-02-28T08:21:47;100587.31;;;4.09;100.00
8069;BME280;4077;43.702;24.896;2023-02-28T08:24:12;100587.50;;;4.12;100.00
8069;BME280;4077;43.702;24.896;2023-02-28T08:26:38;100579.16;;;4.00;100.00
8069;BME280;4077;43.702;24.896;2023-02-28T08:29:03;100577.44;;;4.15;100.00
8069;BME280;4077;43.702;24.896;2023-02-28T08:31:28;100578.84;;;4.10;100.00
8069;BME280;4077;43.702;24.896;2023-02-28T08:33:54;100584.78;;;4.25;100.00
8069;BME280;4077;43.702;24.896;2023-02-28T08:36:22;100588.16;;;4.24;100.00
8069;BME280;4077;43.702;24.896;2023-02-28T08:38:48;100575.84;;;4.17;100.00
8069;BME280;4077;43.702;24.896;2023-02-28T08:41:14;100575.69;;;4.14;100.00
8069;BME280;4077;43.702;24.896;2023-02-28T08:43:40;100583.00;;;4.08;100.00
8069;BME280;4077;43.702;24.896;2023-02-28T08:46:06;100575.69;;;4.14;100.00
8069;BME280;4077;43.702;24.896;2023-02-28T08:48:34;100576.06;;;4.05;100.00
8069;BME280;4077;43.702;24.896;2023-02-28T08:51:11;100560.03;;;4.08;100.00
8069;BME280;4077;43.702;24.896;2023-02-28T08:53:37;100561.78;;;4.09;100.00
8069;BME280;4077;43.702;24.896;2023-02-28T08:56:08;100569.41;;;3.93;100.00
8069;BME280;4077;43.702;24.896;2023-02-28T08:58:34;100567.16;;;4.14;100.00
8069;BME280;4077;43.702;24.896;2023-02-28T09:01:06;100567.56;;;4.21;100.00
8069;BME280;4077;43.702;24.896;2023-02-28T09:03:32;100581.88;;;4.03;100.00
8069;BME280;4077;43.702;24.896;2023-02-28T09:05:59;100569.69;;;4.14;100.00
8069;BME280;4077;43.702;24.896;2023-02-28T09:08:27;100563.88;;;4.16;100.00
8069;BME280;4077;43.702;24.896;2023-02-28T09:10:52;100565.47;;;4.14;100.00
8069;BME280;4077;43.702;24.896;2023-02-28T09:13:19;100576.19;;;4.23;100.00
8069;BME280;4077;43.702;24.896;2023-02-28T09:15:45;100583.91;;;4.25;100.00
8069;BME280;4077;43.702;24.896;2023-02-28T09:18:11;100579.19;;;4.16;100.00
8069;BME280;4077;43.702;24.896;2023-02-28T09:20:38;100571.56;;;4.32;100.00
8069;BME280;4077;43.702;24.896;2023-02-28T09:23:04;100564.47;;;4.43;100.00
8069;BME280;4077;43.702;24.896;2023-02-28T09:25:30;100567.56;;;4.37;100.00
8069;BME280;4077;43.702;24.896;2023-02-28T09:27:55;100579.13;;;4.31;100.00
8069;BME280;4077;43.702;24.896;2023-02-28T09:30:21;100578.09;;;4.27;100.00
8069;BME280;4077;43.702;24.896;2023-02-28T09:32:46;100582.81;;;4.20;100.00
8069;BME280;4077;43.702;24.896;2023-02-28T09:35:18;100584.63;;;4.22;100.00
8069;BME280;4077;43.702;24.896;2023-02-28T09:37:44;100585.53;;;4.23;100.00
8069;BME280;4077;43.702;24.896;2023-02-28T09:40:11;100582.69;;;4.18;100.00
8069;BME280;4077;43.702;24.896;2023-02-28T09:42:37;100593.25;;;4.24;100.00
8069;BME280;4077;43.702;24.896;2023-02-28T09:45:10;100598.38;;;4.24;100.00
8069;BME280;4077;43.702;24.896;2023-02-28T09:47:45;100588.16;;;4.24;100.00
8069;BME280;4077;43.702;24.896;2023-02-28T09:50:28;100578.41;;;4.17;100.00
8069;BME280;4077;43.702;24.896;2023-02-28T09:52:55;100585.56;;;4.08;100.00
8069;BME280;4077;43.702;24.896;2023-02-28T09:55:33;100577.28;;;4.12;100.00
8069;BME280;4077;43.702;24.896;2023-02-28T09:58:03;100589.34;;;4.15;100.00
8069;BME280;4077;43.702;24.896;2023-02-28T10:00:39;100585.78;;;4.27;100.00
8069;BME280;4077;43.702;24.896;2023-02-28T10:03:25;100595.19;;;4.28;100.00
8069;BME280;4077;43.702;24.896;2023-02-28T10:06:25;100592.13;;;4.50;100.00
8069;BME280;4077;43.702;24.896;2023-02-28T10:09:04;100599.06;;;4.53;100.00
8069;BME280;4077;43.702;24.896;2023-02-28T10:11:35;100585.66;;;4.41;100.00
8069;BME280;4077;43.702;24.896;2023-02-28T10:14:18;100585.13;;;4.31;100.00
8069;BME280;4077;43.702;24.896;2023-02-28T10:17:05;100579.69;;;4.25;100.00
8069;BME280;4077;43.702;24.896;2023-02-28T10:19:47;100576.22;;;4.39;100.00
8069;BME280;4077;43.702;24.896;2023-02-28T10:22:22;100576.28;;;4.41;100.00
8069;BME280;4077;43.702;24.896;2023-02-28T10:24:53;100571.88;;;4.38;100.00
8069;BME280;4077;43.702;24.896;2023-02-28T10:27:24;100573.66;;;4.39;100.00
8069;BME280;4077;43.702;24.896;2023-02-28T10:29:52;100566.16;;;4.43;100.00
8069;BME280;4077;43.702;24.896;2023-02-28T10:32:25;100570.06;;;4.52;100.00
8069;BME280;4077;43.702;24.896;2023-02-28T10:35:09;100563.19;;;4.35;100.00
8069;BME280;4077;43.702;24.896;2023-02-28T10:37:43;100569.66;;;4.45;100.00
8069;BME280;4077;43.702;24.896;2023-02-28T10:42:58;100551.78;;;4.61;100.00
8069;BME280;4077;43.702;24.896;2023-02-28T10:45:25;100547.13;;;4.70;100.00
8069;BME280;4077;43.702;24.896;2023-02-28T10:50:55;100544.72;;;4.89;100.00
8069;BME280;4077;43.702;24.896;2023-02-28T10:53:30;100551.44;;;4.87;100.00
8069;BME280;4077;43.702;24.896;2023-02-28T11:01:14;100554.72;;;4.52;100.00
8069;BME280;4077;43.702;24.896;2023-02-28T11:03:40;100541.47;;;4.43;100.00
8069;BME280;4077;43.702;24.896;2023-02-28T11:06:16;100541.38;;;4.42;100.00
8069;BME280;4077;43.702;24.896;2023-02-28T11:08:47;100532.81;;;4.57;100.00
8069;BME280;4077;43.702;24.896;2023-02-28T11:11:14;100543.38;;;4.63;100.00
8069;BME280;4077;43.702;24.896;2023-02-28T11:13:44;100530.19;;;4.56;100.00
8069;BME280;4077;43.702;24.896;2023-02-28T11:16:13;100532.13;;;4.60;100.00
8069;BME280;4077;43.702;24.896;2023-02-28T11:18:55;100536.41;;;4.77;100.00
8069;BME280;4077;43.702;24.896;2023-02-28T11:21:30;100531.41;;;4.62;100.00
8069;BME280;4077;43.702;24.896;2023-02-28T11:24:03;100533.22;;;4.65;100.00
8069;BME280;4077;43.702;24.896;2023-02-28T11:26:47;100528.44;;;4.87;100.00
8069;BME280;4077;43.702;24.896;2023-02-28T11:29:32;100520.50;;;4.83;100.00
8069;BME280;4077;43.702;24.896;2023-02-28T11:32:11;100513.09;;;4.87;100.00
8069;BME280;4077;43.702;24.896;2023-02-28T11:34:38;100503.41;;;4.82;100.00
8069;BME280;4077;43.702;24.896;2023-02-28T11:37:12;100508.28;;;4.77;100.00
8069;BME280;4077;43.702;24.896;2023-02-28T11:39:38;100502.22;;;4.75;100.00
8069;BME280;4077;43.702;24.896;2023-02-28T11:44:51;100499.66;;;4.59;100.00
8069;BME280;4077;43.702;24.896;2023-02-28T11:47:47;100510.22;;;4.65;100.00
8069;BME280;4077;43.702;24.896;2023-02-28T11:53:05;100519.78;;;4.85;100.00
8069;BME280;4077;43.702;24.896;2023-02-28T11:55:39;100505.47;;;4.89;100.00
8069;BME280;4077;43.702;24.896;2023-02-28T11:58:44;100503.06;;;4.92;100.00
8069;BME280;4077;43.702;24.896;2023-02-28T12:07:09;100505.28;;;4.68;100.00
8069;BME280;4077;43.702;24.896;2023-02-28T12:12:30;100497.97;;;4.76;100.00
8069;BME280;4077;43.702;24.896;2023-02-28T12:15:25;100501.38;;;4.92;100.00
8069;BME280;4077;43.702;24.896;2023-02-28T12:23:02;100495.88;;;4.85;100.00
8069;BME280;4077;43.702;24.896;2023-02-28T12:28:28;100492.63;;;4.87;100.00
8069;BME280;4077;43.702;24.896;2023-02-28T12:31:03;100501.38;;;4.92;100.00
8069;BME280;4077;43.702;24.896;2023-02-28T12:33:36;100509.16;;;5.12;100.00
8069;BME280;4077;43.702;24.896;2023-02-28T12:36:11;100503.91;;;5.09;100.00
8069;BME280;4077;43.702;24.896;2023-02-28T12:38:42;100508.09;;;4.90;100.00
8069;BME280;4077;43.702;24.896;2023-02-28T12:41:37;100507.00;;;4.85;100.00
8069;BME280;4077;43.702;24.896;2023-02-28T12:44:12;100507.91;;;5.04;100.00
8069;BME280;4077;43.702;24.896;2023-02-28T12:46:45;100503.44;;;5.00;100.00
8069;BME280;4077;43.702;24.896;2023-02-28T12:49:50;100491.16;;;4.92;100.00
8069;BME280;4077;43.702;24.896;2023-02-28T12:52:31;100496.13;;;4.89;100.00
8069;BME280;4077;43.702;24.896;2023-02-28T12:55:02;100495.56;;;4.95;100.00
8069;BME280;4077;43.702;24.896;2023-02-28T12:57:48;100484.94;;;4.87;100.00
8069;BME280;4077;43.702;24.896;2023-02-28T13:00:21;100491.63;;;5.02;100.00
8069;BME280;4077;43.702;24.896;2023-02-28T13:06:05;100491.63;;;5.02;100.00
8069;BME280;4077;43.702;24.896;2023-02-28T13:11:41;100483.13;;;4.69;100.00
8069;BME280;4077;43.702;24.896;2023-02-28T13:14:27;100484.63;;;4.65;100.00
8069;BME280;4077;43.702;24.896;2023-02-28T13:19:24;100488.94;;;4.82;100.00
8069;BME280;4077;43.702;24.896;2023-02-28T13:21:51;100481.66;;;4.90;100.00
8069;BME280;4077;43.702;24.896;2023-02-28T13:29:30;100479.16;;;4.91;100.00
8069;BME280;4077;43.702;24.896;2023-02-28T13:34:37;100479.34;;;4.94;100.00
8069;BME280;4077;43.702;24.896;2023-02-28T13:39:49;100481.91;;;4.78;100.00
8069;BME280;4077;43.702;24.896;2023-02-28T13:47:43;100475.38;;;4.67;100.00
8069;BME280;4077;43.702;24.896;2023-02-28T13:55:57;100474.91;;;4.58;100.00
8069;BME280;4077;43.702;24.896;2023-02-28T13:59:14;100475.69;;;4.57;100.00
8069;BME280;4077;43.702;24.896;2023-02-28T14:04:42;100481.69;;;4.74;100.00
8069;BME280;4077;43.702;24.896;2023-02-28T14:07:18;100471.03;;;4.66;100.00
8069;BME280;4077;43.702;24.896;2023-02-28T14:09:56;100464.03;;;4.62;100.00
8069;BME280;4077;43.702;24.896;2023-02-28T14:18:31;100464.94;;;4.80;100.00
8069;BME280;4077;43.702;24.896;2023-02-28T14:21:10;100470.22;;;4.83;100.00
8069;BME280;4077;43.702;24.896;2023-02-28T14:24:00;100472.72;;;4.82;100.00
8069;BME280;4077;43.702;24.896;2023-02-28T14:32:37;100477.00;;;4.49;100.00
8069;BME280;4077;43.702;24.896;2023-02-28T14:38:29;100488.56;;;4.58;100.00
8069;BME280;4077;43.702;24.896;2023-02-28T14:40:58;100485.94;;;4.57;100.00
8069;BME280;4077;43.702;24.896;2023-02-28T14:43:27;100477.13;;;4.52;100.00
8069;BME280;4077;43.702;24.896;2023-02-28T14:46:04;100482.53;;;4.40;100.00
8069;BME280;4077;43.702;24.896;2023-02-28T14:48:31;100487.22;;;4.49;100.00
8069;BME280;4077;43.702;24.896;2023-02-28T14:50:59;100483.38;;;4.57;100.00
8069;BME280;4077;43.702;24.896;2023-02-28T14:53:29;100486.81;;;4.57;100.00
8069;BME280;4077;43.702;24.896;2023-02-28T14:55:55;100486.81;;;4.57;100.00
8069;BME280;4077;43.702;24.896;2023-02-28T14:58:31;100489.19;;;4.71;100.00
8069;BME280;4077;43.702;24.896;2023-02-28T15:00:59;100494.06;;;4.82;100.00
8069;BME280;4077;43.702;24.896;2023-02-28T15:06:00;100505.19;;;5.01;100.00
8069;BME280;4077;43.702;24.896;2023-02-28T15:08:26;100486.34;;;4.99;100.00
8069;BME280;4077;43.702;24.896;2023-02-28T15:11:13;100494.19;;;5.02;100.00
8069;BME280;4077;43.702;24.896;2023-02-28T15:13:50;100491.72;;;4.87;100.00
8069;BME280;4077;43.702;24.896;2023-02-28T15:16:37;100492.63;;;4.87;100.00